Time;durP1;ratioP1;P1;durP2;ratioP2;P2;SDS_P1;SDS_P2;PMS_P1;PMS_P2;Temp;Humidity;BMP_temperature;BMP_pressure;BME280_temperature;BME280_humidity;BME280_pressure;Samples;Min_cycle;Max_cycle;Signal;HPM_P1;HPM_P2
2023/04/24 00:02:10;;;;;;;;;;;;;;;22.23;44.61;100280.66;7268413;19;152415;-84
2023/04/24 00:04:40;;;;;;;;;;;;;;;22.21;44.91;100278.19;7267260;19;154000;-83
2023/04/24 00:07:07;;;;;;;;;;;;;;;22.21;44.77;100288.63;7265433;19;154594;-84
2023/04/24 00:09:34;;;;;;;;;;;;;;;22.19;45.30;100286.13;7265588;19;154713;-83
2023/04/24 00:12:04;;;;;;;;;;;;;;;22.18;44.94;100292.91;7273437;19;153541;-83
2023/04/24 00:14:31;;;;;;;;;;;;;;;22.17;44.78;100302.50;7266708;19;154197;-81
2023/04/24 00:17:02;;;;;;;;;;;;;;;22.16;45.28;100298.06;7270168;19;153491;-83
2023/04/24 00:19:29;;;;;;;;;;;;;;;22.14;44.94;100306.84;7268567;19;152600;-84
2023/04/24 00:21:56;;;;;;;;;;;;;;;22.13;44.95;100304.34;7270493;19;153198;-83
2023/04/24 00:24:23;;;;;;;;;;;;;;;22.13;45.55;100310.81;7265709;19;153476;-83
2023/04/24 00:26:50;;;;;;;;;;;;;;;22.13;45.31;100310.81;7264717;19;153234;-83
2023/04/24 00:29:17;;;;;;;;;;;;;;;22.12;45.03;100317.59;7267214;19;153310;-82
2023/04/24 00:31:43;;;;;;;;;;;;;;;22.11;45.32;100315.13;7266838;19;153827;-84
2023/04/24 00:34:11;;;;;;;;;;;;;;;22.10;45.33;100322.75;7274134;19;154232;-83
2023/04/24 00:36:38;;;;;;;;;;;;;;;22.10;45.11;100328.38;7266131;19;154657;-83
2023/04/24 00:39:05;;;;;;;;;;;;;;;22.08;45.07;100327.03;7268051;19;154545;-84
2023/04/24 00:41:32;;;;;;;;;;;;;;;22.08;45.05;100325.06;7265380;19;153128;-84
2023/04/24 00:44:00;;;;;;;;;;;;;;;22.05;45.47;100328.53;7262847;19;154536;-84
2023/04/24 00:46:27;;;;;;;;;;;;;;;22.06;45.36;100335.81;7264199;19;154801;-83
2023/04/24 00:48:56;;;;;;;;;;;;;;;22.06;45.43;100332.19;7267637;19;153167;-83
2023/04/24 00:51:24;;;;;;;;;;;;;;;22.03;45.52;100342.09;7266737;19;155620;-84
2023/04/24 00:53:51;;;;;;;;;;;;;;;22.01;45.65;100341.63;7274154;19;155600;-83
2023/04/24 00:56:19;;;;;;;;;;;;;;;22.02;45.09;100342.47;7268422;19;153176;-83
2023/04/24 00:58:46;;;;;;;;;;;;;;;21.99;45.10;100341.13;7268972;19;152908;-84
2023/04/24 01:01:18;;;;;;;;;;;;;;;21.98;45.07;100342.31;7265557;19;153364;-84
2023/04/24 01:03:45;;;;;;;;;;;;;;;21.97;45.11;100342.63;7266188;19;153906;-83
2023/04/24 01:06:15;;;;;;;;;;;;;;;21.97;45.34;100329.38;7263963;19;155340;-83
2023/04/24 01:08:43;;;;;;;;;;;;;;;21.98;45.27;100336.69;7266669;19;153932;-84
2023/04/24 01:11:10;;;;;;;;;;;;;;;21.93;45.55;100338.81;7266055;19;154370;-84
2023/04/24 01:13:37;;;;;;;;;;;;;;;21.91;45.06;100343.91;7264618;19;156684;-84
2023/04/24 01:16:04;;;;;;;;;;;;;;;21.88;45.40;100344.59;7272855;19;153267;-84
2023/04/24 01:18:32;;;;;;;;;;;;;;;21.87;45.72;100352.19;7265978;19;154674;-84
2023/04/24 01:20:59;;;;;;;;;;;;;;;21.87;45.40;100365.44;7264874;19;152749;-83
2023/04/24 01:23:26;;;;;;;;;;;;;;;21.84;45.51;100369.75;7263505;19;153158;-84
2023/04/24 01:25:53;;;;;;;;;;;;;;;21.83;45.65;100370.91;7260193;19;154139;-84
2023/04/24 01:28:21;;;;;;;;;;;;;;;21.78;45.91;100364.59;7262684;19;153900;-84
2023/04/24 01:30:48;;;;;;;;;;;;;;;21.78;45.68;100362.63;7258896;19;153764;-84
2023/04/24 01:33:15;;;;;;;;;;;;;;;21.77;46.00;100360.13;7262100;19;155206;-83
2023/04/24 01:35:42;;;;;;;;;;;;;;;21.71;46.38;100360.28;7265411;19;155589;-83
2023/04/24 01:38:09;;;;;;;;;;;;;;;21.69;46.44;100347.75;7269536;19;153887;-83
2023/04/24 01:40:36;;;;;;;;;;;;;;;21.66;46.20;100346.44;7263260;19;153858;-83
2023/04/24 01:43:03;;;;;;;;;;;;;;;21.64;46.22;100345.91;7262732;19;155118;-84
2023/04/24 01:45:31;;;;;;;;;;;;;;;21.65;46.70;100347.56;7262141;19;153954;-84
2023/04/24 01:47:58;;;;;;;;;;;;;;;21.60;46.75;100350.56;7263938;19;152308;-83
2023/04/24 01:50:25;;;;;;;;;;;;;;;21.56;46.88;100355.19;7260356;19;153571;-82
2023/04/24 01:52:52;;;;;;;;;;;;;;;21.55;46.84;100358.31;7262974;19;156442;-83
2023/04/24 01:55:19;;;;;;;;;;;;;;;21.54;47.15;100356.66;7270233;19;153161;-83
2023/04/24 01:57:46;;;;;;;;;;;;;;;21.54;46.99;100359.47;7274194;19;156118;-83
2023/04/24 02:00:14;;;;;;;;;;;;;;;21.49;47.30;100365.25;7272186;19;157912;-84
2023/04/24 02:02:41;;;;;;;;;;;;;;;21.49;47.48;100371.69;7274931;19;154869;-83
2023/04/24 02:05:12;;;;;;;;;;;;;;;21.46;47.63;100369.56;7272864;19;153798;-84
2023/04/24 02:07:43;;;;;;;;;;;;;;;21.47;47.45;100373.19;7273695;19;152653;-83
2023/04/24 02:10:10;;;;;;;;;;;;;;;21.44;47.41;100371.84;7273851;19;155232;-84
2023/04/24 02:12:37;;;;;;;;;;;;;;;21.41;47.68;100382.94;7274490;19;155027;-84
2023/04/24 02:15:05;;;;;;;;;;;;;;;21.37;47.86;100373.50;7272241;19;154010;-84
2023/04/24 02:17:32;;;;;;;;;;;;;;;21.35;47.72;100379.44;7271226;19;154173;-84
2023/04/24 02:19:59;;;;;;;;;;;;;;;21.32;47.51;100379.28;7272207;19;153366;-84
2023/04/24 02:22:26;;;;;;;;;;;;;;;21.30;47.87;100388.06;7278442;19;154098;-83
2023/04/24 02:24:53;;;;;;;;;;;;;;;21.29;47.63;100375.16;7268520;19;155497;-83
2023/04/24 02:27:22;;;;;;;;;;;;;;;21.32;47.74;100391.34;7273040;19;153417;-84
2023/04/24 02:29:49;;;;;;;;;;;;;;;21.24;47.65;100386.53;7270941;19;153301;-84
2023/04/24 02:32:16;;;;;;;;;;;;;;;21.26;47.82;100395.44;7273495;19;154486;-84
2023/04/24 02:34:43;;;;;;;;;;;;;;;21.27;47.73;100392.31;7274024;19;153047;-84
2023/04/24 02:37:10;;;;;;;;;;;;;;;21.22;47.73;100392.47;7274357;19;153326;-83
2023/04/24 02:39:37;;;;;;;;;;;;;;;21.21;47.46;100395.63;7274071;19;153991;-84
2023/04/24 02:42:07;;;;;;;;;;;;;;;21.20;47.84;100410.81;7281627;19;153671;-83
2023/04/24 02:44:35;;;;;;;;;;;;;;;21.19;47.64;100404.38;7268852;19;154002;-83
2023/04/24 02:47:02;;;;;;;;;;;;;;;21.19;47.41;100415.63;7273604;19;155214;-83
2023/04/24 02:49:29;;;;;;;;;;;;;;;21.18;47.68;100413.13;7272802;19;153534;-83
2023/04/24 02:51:56;;;;;;;;;;;;;;;21.19;47.20;100409.16;7273357;19;156546;-83
2023/04/24 02:54:23;;;;;;;;;;;;;;;21.20;47.19;100417.28;7273658;19;152691;-84
2023/04/24 02:56:50;;;;;;;;;;;;;;;21.17;47.24;100425.50;7272976;19;153697;-84
2023/04/24 02:59:17;;;;;;;;;;;;;;;21.20;47.12;100425.72;7269168;19;154410;-83
2023/04/24 03:01:44;;;;;;;;;;;;;;;21.19;47.23;100432.47;7269121;19;153410;-83
2023/04/24 03:04:11;;;;;;;;;;;;;;;21.16;47.06;100430.31;7277462;19;153178;-84
2023/04/24 03:06:39;;;;;;;;;;;;;;;21.15;47.26;100441.88;7272559;19;154264;-83
2023/04/24 03:09:06;;;;;;;;;;;;;;;21.11;47.38;100438.88;7270409;19;153566;-84
2023/04/24 03:11:33;;;;;;;;;;;;;;;21.04;47.47;100441.28;7267860;19;153942;-83
2023/04/24 03:14:00;;;;;;;;;;;;;;;21.06;47.38;100443.78;7270655;19;153865;-83
2023/04/24 03:16:27;;;;;;;;;;;;;;;21.09;47.04;100443.13;7271505;19;153860;-84
2023/04/24 03:18:55;;;;;;;;;;;;;;;21.09;46.89;100451.56;7269964;19;154062;-83
2023/04/24 03:21:22;;;;;;;;;;;;;;;21.04;47.34;100454.50;7271144;19;153059;-83
2023/04/24 03:23:49;;;;;;;;;;;;;;;21.01;47.38;100450.38;7270436;19;154228;-83
2023/04/24 03:26:16;;;;;;;;;;;;;;;20.97;47.19;100451.34;7272485;19;154298;-83
2023/04/24 03:28:43;;;;;;;;;;;;;;;21.02;47.09;100454.84;7272440;19;154053;-83
2023/04/24 03:31:10;;;;;;;;;;;;;;;20.98;47.34;100464.25;7267076;19;154115;-83
2023/04/24 03:33:38;;;;;;;;;;;;;;;20.98;47.08;100461.44;7272577;19;153461;-84
2023/04/24 03:36:05;;;;;;;;;;;;;;;20.95;47.28;100467.69;7271695;19;153567;-83
2023/04/24 03:38:32;;;;;;;;;;;;;;;20.89;47.21;100460.56;7270501;19;154009;-83
2023/04/24 03:41:00;;;;;;;;;;;;;;;20.85;47.52;100466.81;7269541;19;154287;-83
2023/04/24 03:43:27;;;;;;;;;;;;;;;20.85;47.75;100471.59;7269836;19;154256;-83
2023/04/24 03:45:54;;;;;;;;;;;;;;;20.83;47.36;100477.56;7266334;19;153727;-83
2023/04/24 03:48:21;;;;;;;;;;;;;;;20.83;47.70;100480.38;7277641;19;153255;-83
2023/04/24 03:50:48;;;;;;;;;;;;;;;20.84;47.24;100482.03;7269786;19;153905;-84
2023/04/24 03:53:15;;;;;;;;;;;;;;;20.80;47.28;100486.59;7268364;19;153372;-83
2023/04/24 03:55:42;;;;;;;;;;;;;;;20.83;47.34;100493.56;7269973;19;153081;-83
2023/04/24 03:58:10;;;;;;;;;;;;;;;20.80;47.59;100492.22;7269333;19;154010;-83
2023/04/24 04:00:40;;;;;;;;;;;;;;;20.78;47.60;100500.16;7268014;19;154687;-83
2023/04/24 04:03:07;;;;;;;;;;;;;;;20.77;48.02;100497.66;7271969;19;154190;-83
2023/04/24 04:05:34;;;;;;;;;;;;;;;20.80;47.45;100495.03;7268147;19;154304;-82
2023/04/24 04:08:01;;;;;;;;;;;;;;;20.75;47.67;100499.97;7272613;19;152860;-83
2023/04/24 04:10:29;;;;;;;;;;;;;;;20.75;47.89;100495.19;7276359;19;153729;-83
2023/04/24 04:12:56;;;;;;;;;;;;;;;20.72;47.78;100501.41;7268349;19;153470;-84
2023/04/24 04:15:23;;;;;;;;;;;;;;;20.72;48.21;100498.63;7267661;19;154107;-83
2023/04/24 04:17:50;;;;;;;;;;;;;;;20.73;47.93;100507.88;7267474;19;154348;-83
2023/04/24 04:20:17;;;;;;;;;;;;;;;20.71;48.06;100504.56;7269905;19;154086;-83
2023/04/24 04:22:47;;;;;;;;;;;;;;;20.68;48.09;100525.69;7273226;19;154298;-83
2023/04/24 04:25:14;;;;;;;;;;;;;;;20.66;48.54;100525.19;7267052;19;155354;-83
2023/04/24 04:27:41;;;;;;;;;;;;;;;20.67;48.56;100531.63;7271094;19;153110;-83
2023/04/24 04:33:26;;;;;;;;;;;;;;;20.65;48.42;100533.91;7277889;19;153280;-83
2023/04/24 04:35:56;;;;;;;;;;;;;;;20.61;48.23;100530.91;7268686;19;153937;-83
2023/04/24 04:38:24;;;;;;;;;;;;;;;20.62;48.34;100543.81;7269628;19;153282;-83
2023/04/24 04:40:51;;;;;;;;;;;;;;;20.58;48.38;100545.56;7266828;19;153725;-83
2023/04/24 04:43:18;;;;;;;;;;;;;;;20.56;48.54;100545.09;7267466;19;155744;-82
2023/04/24 04:45:45;;;;;;;;;;;;;;;20.57;48.36;100548.72;7265770;19;153942;-83
2023/04/24 04:48:13;;;;;;;;;;;;;;;20.56;48.19;100547.88;7265617;19;152900;-83
2023/04/24 04:50:40;;;;;;;;;;;;;;;20.59;47.92;100552.03;7266619;19;153726;-83
2023/04/24 04:53:07;;;;;;;;;;;;;;;20.55;48.04;100559.41;7275007;19;156289;-83
2023/04/24 04:55:35;;;;;;;;;;;;;;;20.55;48.22;100563.06;7267844;19;154180;-83
2023/04/24 04:58:02;;;;;;;;;;;;;;;20.52;48.03;100560.91;7262347;19;154352;-82
2023/04/24 05:00:35;;;;;;;;;;;;;;;20.55;48.22;100567.84;7262592;19;152860;-82
2023/04/24 05:03:02;;;;;;;;;;;;;;;20.50;48.00;100580.03;7272547;19;154030;-81
2023/04/24 05:05:45;;;;;;;;;;;;;;;20.53;48.08;100571.00;7267861;19;154162;-83
2023/04/24 05:08:13;;;;;;;;;;;;;;;20.52;48.04;100577.75;7270965;19;153955;-82
2023/04/24 05:10:43;;;;;;;;;;;;;;;20.50;47.99;100576.38;7265625;19;154351;-82
2023/04/24 05:13:10;;;;;;;;;;;;;;;20.47;48.17;100585.44;7268113;19;154208;-82
2023/04/24 05:15:39;;;;;;;;;;;;;;;20.46;48.04;100586.59;7277438;19;153930;-82
2023/04/24 05:18:06;;;;;;;;;;;;;;;20.48;48.03;100587.94;7271002;19;153920;-82
2023/04/24 05:20:34;;;;;;;;;;;;;;;20.44;48.03;100592.53;7269294;19;153661;-82
2023/04/24 05:23:01;;;;;;;;;;;;;;;20.46;48.39;100589.38;7270042;19;154006;-82
2023/04/24 05:25:31;;;;;;;;;;;;;;;20.43;48.48;100593.66;7266708;19;154738;-81
2023/04/24 05:27:59;;;;;;;;;;;;;;;20.46;47.90;100598.66;7264005;19;152096;-82
2023/04/24 05:30:26;;;;;;;;;;;;;;;20.44;47.83;100598.16;7267030;19;153810;-82
2023/04/24 05:32:53;;;;;;;;;;;;;;;20.46;48.25;100603.41;7263000;19;156700;-81
2023/04/24 05:35:20;;;;;;;;;;;;;;;20.42;47.99;100608.84;7269141;19;152119;-82
2023/04/24 05:37:50;;;;;;;;;;;;;;;20.38;47.95;100605.84;7272661;19;154682;-84
2023/04/24 05:40:17;;;;;;;;;;;;;;;20.37;47.91;100603.34;7263996;19;152611;-81
2023/04/24 05:42:44;;;;;;;;;;;;;;;20.41;47.79;100609.97;7265496;19;153218;-83
2023/04/24 05:45:16;;;;;;;;;;;;;;;20.32;48.21;100615.50;7263472;19;153168;-84
2023/04/24 05:47:43;;;;;;;;;;;;;;;20.35;47.90;100616.88;7267103;19;151704;-84
2023/04/24 05:50:11;;;;;;;;;;;;;;;20.34;48.38;100620.81;7263301;19;156836;-84
2023/04/24 05:52:38;;;;;;;;;;;;;;;20.31;48.07;100624.22;7263203;19;155048;-83
2023/04/24 05:55:06;;;;;;;;;;;;;;;20.35;48.00;100622.50;7267545;19;154902;-83
2023/04/24 05:57:33;;;;;;;;;;;;;;;20.29;48.09;100623.72;7262395;19;153410;-84
2023/04/24 06:00:00;;;;;;;;;;;;;;;20.32;48.19;100623.09;7265207;19;153639;-83
2023/04/24 06:02:32;;;;;;;;;;;;;;;20.28;48.21;100625.69;7260642;19;153903;-83
2023/04/24 06:04:59;;;;;;;;;;;;;;;20.34;47.89;100624.47;7264053;19;154431;-83
2023/04/24 06:07:26;;;;;;;;;;;;;;;20.33;48.04;100624.78;7264589;19;154260;-83
2023/04/24 06:09:53;;;;;;;;;;;;;;;20.31;48.12;100629.84;7264623;19;153955;-83
2023/04/24 06:12:20;;;;;;;;;;;;;;;20.28;48.21;100625.69;7262337;19;155206;-83
2023/04/24 06:14:47;;;;;;;;;;;;;;;20.28;47.97;100639.69;7264872;19;152990;-84
2023/04/24 06:17:15;;;;;;;;;;;;;;;20.27;47.75;100635.22;7261772;19;156857;-83
2023/04/24 06:19:42;;;;;;;;;;;;;;;20.22;48.14;100634.50;7258779;19;155124;-82
2023/04/24 06:22:09;;;;;;;;;;;;;;;20.27;48.60;100635.22;7268418;19;153359;-81
2023/04/24 06:24:36;;;;;;;;;;;;;;;19.98;43.27;100640.38;7259983;19;154798;-81
2023/04/24 06:27:03;;;;;;;;;;;;;;;19.60;42.35;100652.91;7262971;19;153273;-81
2023/04/24 06:29:30;;;;;;;;;;;;;;;19.33;42.07;100653.66;7259230;19;154639;-80
2023/04/24 06:31:57;;;;;;;;;;;;;;;19.04;42.42;100654.69;7258699;19;154625;-81
2023/04/24 06:34:24;;;;;;;;;;;;;;;19.05;42.59;100644.34;7264378;19;153781;-81
2023/04/24 06:36:53;;;;;;;;;;;;;;;19.29;43.87;100655.41;7256832;19;153108;-81
2023/04/24 06:39:20;;;;;;;;;;;;;;;19.41;44.20;100650.97;7255339;19;154285;-81
2023/04/24 06:41:48;;;;;;;;;;;;;;;19.49;44.36;100650.28;7264286;19;154107;-81
2023/04/24 06:44:15;;;;;;;;;;;;;;;19.56;44.68;100652.69;7266255;19;158775;-82
2023/04/24 06:46:42;;;;;;;;;;;;;;;19.66;44.62;100657.28;7261813;19;153541;-82
2023/04/24 06:49:09;;;;;;;;;;;;;;;19.75;44.32;100658.22;7260186;19;153633;-81
2023/04/24 06:51:36;;;;;;;;;;;;;;;19.85;44.63;100655.22;7258495;19;156291;-81
2023/04/24 06:54:03;;;;;;;;;;;;;;;19.93;44.33;100662.91;7255169;19;153860;-82
2023/04/24 06:56:30;;;;;;;;;;;;;;;19.99;44.57;100670.88;7259652;19;153852;-81
2023/04/24 06:58:58;;;;;;;;;;;;;;;20.08;44.50;100668.19;7258194;19;155564;-82
2023/04/24 07:01:24;;;;;;;;;;;;;;;20.13;44.29;100667.25;7261154;19;153600;-82
2023/04/24 07:03:52;;;;;;;;;;;;;;;20.20;44.37;100667.66;7268626;19;153700;-82
2023/04/24 07:06:22;;;;;;;;;;;;;;;20.27;44.35;100662.44;7259728;19;154210;-81
2023/04/24 07:08:49;;;;;;;;;;;;;;;20.34;44.37;100663.75;7260670;19;153412;-81
2023/04/24 07:11:16;;;;;;;;;;;;;;;20.42;44.24;100665.81;7259797;19;154028;-81
2023/04/24 07:13:44;;;;;;;;;;;;;;;20.52;44.13;100666.72;7255706;19;154626;-81
2023/04/24 07:16:11;;;;;;;;;;;;;;;20.57;43.82;100663.81;7257412;19;153814;-81
2023/04/24 07:18:39;;;;;;;;;;;;;;;20.65;43.83;100672.31;7260698;19;153969;-81
2023/04/24 07:21:07;;;;;;;;;;;;;;;20.73;43.82;100665.09;7260106;19;152466;-82
2023/04/24 07:23:34;;;;;;;;;;;;;;;20.79;43.68;100670.28;7264292;19;155846;-81
2023/04/24 07:26:01;;;;;;;;;;;;;;;20.84;43.82;100664.56;7268488;19;155197;-80
2023/04/24 07:28:30;;;;;;;;;;;;;;;20.90;44.10;100658.78;7267580;19;153340;-82
2023/04/24 07:30:59;;;;;;;;;;;;;;;21.00;44.21;100669.78;7261025;19;155660;-81
2023/04/24 07:33:26;;;;;;;;;;;;;;;21.08;43.58;100661.41;7269031;19;153011;-81
2023/04/24 07:35:53;;;;;;;;;;;;;;;21.14;43.20;100667.78;7243128;19;156723;-81
2023/04/24 07:38:21;;;;;;;;;;;;;;;21.16;43.53;100671.09;7265297;19;154387;-82
2023/04/24 07:40:49;;;;;;;;;;;;;;;21.23;43.06;100672.31;7272445;19;152224;-81
2023/04/24 07:43:16;;;;;;;;;;;;;;;21.29;43.18;100675.81;7269621;19;153648;-81
2023/04/24 07:45:43;;;;;;;;;;;;;;;21.35;42.46;100677.34;7267804;19;154169;-81
2023/04/24 07:48:10;;;;;;;;;;;;;;;21.40;42.36;100680.00;7277260;19;154444;-81
2023/04/24 07:50:37;;;;;;;;;;;;;;;21.43;42.44;100685.00;7263085;19;155328;-80
2023/04/24 07:53:04;;;;;;;;;;;;;;;21.49;42.39;100688.50;7265737;19;154010;-81
2023/04/24 07:55:31;;;;;;;;;;;;;;;21.52;42.16;100685.91;7271366;19;152959;-80
2023/04/24 07:57:58;;;;;;;;;;;;;;;21.56;42.14;100688.88;7266754;19;153884;-81
2023/04/24 08:00:25;;;;;;;;;;;;;;;21.57;41.80;100690.56;7262607;19;154249;-82
2023/04/24 08:02:52;;;;;;;;;;;;;;;21.63;42.11;100692.88;7269406;19;154101;-81
2023/04/24 08:05:19;;;;;;;;;;;;;;;21.64;41.75;100693.72;7267166;19;154823;-80
2023/04/24 08:07:50;;;;;;;;;;;;;;;21.67;41.32;100701.50;7275438;19;154142;-81
2023/04/24 08:10:17;;;;;;;;;;;;;;;21.67;41.43;100699.53;7284481;19;153695;-81
2023/04/24 08:12:44;;;;;;;;;;;;;;;21.71;41.60;100694.13;7277263;19;152529;-82
2023/04/24 08:15:11;;;;;;;;;;;;;;;21.72;41.33;100685.34;7275338;19;153476;-81
2023/04/24 08:17:40;;;;;;;;;;;;;;;21.73;41.01;100686.16;7277376;19;153545;-81
2023/04/24 08:20:13;;;;;;;;;;;;;;;21.73;40.98;100688.97;7278410;19;151883;-80
2023/04/24 08:22:41;;;;;;;;;;;;;;;21.74;41.05;100690.66;7280514;19;154276;-81
2023/04/24 08:25:08;;;;;;;;;;;;;;;21.76;40.83;100702.38;7279758;19;153774;-82
2023/04/24 08:27:36;;;;;;;;;;;;;;;21.77;40.67;100697.59;7276076;19;153202;-80
2023/04/24 08:30:04;;;;;;;;;;;;;;;21.80;40.57;100703.44;7276590;19;153087;-81
2023/04/24 08:32:31;;;;;;;;;;;;;;;21.80;40.36;100700.63;7288389;19;153778;-80
2023/04/24 08:34:59;;;;;;;;;;;;;;;21.80;40.53;100711.03;7279453;19;155285;-82
2023/04/24 08:37:26;;;;;;;;;;;;;;;21.81;40.62;100710.69;7278799;19;153277;-81
2023/04/24 08:39:54;;;;;;;;;;;;;;;21.80;40.48;100711.03;7280395;19;153057;-81
2023/04/24 08:42:21;;;;;;;;;;;;;;;21.77;40.30;100715.31;7278012;19;152731;-79
2023/04/24 08:44:49;;;;;;;;;;;;;;;21.78;40.53;100714.16;7271541;19;153618;-81
2023/04/24 08:47:16;;;;;;;;;;;;;;;21.80;40.01;100711.03;7274357;19;154621;-82
2023/04/24 08:49:45;;;;;;;;;;;;;;;21.79;40.02;100713.00;7268983;19;155396;-81
2023/04/24 08:52:14;;;;;;;;;;;;;;;21.78;40.00;100713.31;7270984;19;156189;-82
2023/04/24 08:54:43;;;;;;;;;;;;;;;21.78;40.26;100718.94;7278510;19;154471;-81
2023/04/24 08:57:11;;;;;;;;;;;;;;;21.78;40.17;100724.56;7270950;19;154685;-82
2023/04/24 08:59:38;;;;;;;;;;;;;;;21.77;40.34;100720.09;7268481;19;153717;-82
2023/04/24 09:02:06;;;;;;;;;;;;;;;21.77;40.28;100717.28;7270920;19;153493;-81
2023/04/24 09:04:34;;;;;;;;;;;;;;;21.74;39.89;100722.41;7266267;19;152736;-81
2023/04/24 09:07:03;;;;;;;;;;;;;;;21.73;39.67;100722.72;7270353;19;152796;-81
2023/04/24 09:09:33;;;;;;;;;;;;;;;21.71;39.80;100723.03;7268307;19;153844;-82
2023/04/24 09:12:00;;;;;;;;;;;;;;;21.69;39.88;100716.09;7267589;19;153625;-82
2023/04/24 09:14:28;;;;;;;;;;;;;;;21.66;39.67;100711.94;7273053;19;154606;-82
2023/04/24 09:16:55;;;;;;;;;;;;;;;21.61;39.66;100720.50;7265901;19;153024;-82
2023/04/24 09:19:22;;;;;;;;;;;;;;;21.59;40.09;100721.97;7264964;19;153093;-81
2023/04/24 09:21:52;;;;;;;;;;;;;;;21.59;39.64;100730.41;7267512;19;153956;-82
2023/04/24 09:24:22;;;;;;;;;;;;;;;21.55;39.77;100730.22;7263066;19;155809;-81
2023/04/24 09:26:57;;;;;;;;;;;;;;;21.53;40.08;100724.09;7265622;19;151909;-81
2023/04/24 09:29:24;;;;;;;;;;;;;;;21.51;40.42;100731.19;7262734;19;153508;-81
2023/04/24 09:31:51;;;;;;;;;;;;;;;21.48;40.06;100738.28;7264621;19;154378;-82
2023/04/24 09:34:24;;;;;;;;;;;;;;;21.45;39.97;100722.03;7262118;19;153808;-81
2023/04/24 09:36:52;;;;;;;;;;;;;;;21.46;40.29;100740.59;7272161;19;153964;-81
2023/04/24 09:39:20;;;;;;;;;;;;;;;21.45;40.53;100741.72;7264632;19;153602;-81
2023/04/24 09:41:48;;;;;;;;;;;;;;;21.42;40.21;100750.81;7265893;19;154071;-82
2023/04/24 09:44:16;;;;;;;;;;;;;;;21.40;40.26;100755.06;7262029;19;154196;-81
2023/04/24 09:46:45;;;;;;;;;;;;;;;21.40;40.08;100755.06;7260608;19;153473;-82
2023/04/24 09:49:13;;;;;;;;;;;;;;;21.39;40.27;100761.88;7263054;19;153133;-83
2023/04/24 09:51:40;;;;;;;;;;;;;;;21.36;40.06;100766.13;7236254;19;155008;-82
2023/04/24 09:54:13;;;;;;;;;;;;;;;21.29;40.09;100765.75;7257572;19;153930;-82
2023/04/24 09:56:42;;;;;;;;;;;;;;;21.27;40.05;100768.88;7259916;19;155983;-81
2023/04/24 09:59:09;;;;;;;;;;;;;;;21.28;40.55;100781.78;7265232;19;155446;-81
2023/04/24 10:01:38;;;;;;;;;;;;;;;21.24;40.70;100774.28;7262233;19;154072;-81
2023/04/24 10:04:06;;;;;;;;;;;;;;;21.22;40.40;100776.59;7260944;19;153926;-81
2023/04/24 10:06:34;;;;;;;;;;;;;;;21.19;40.90;100778.06;7265642;19;153873;-81
2023/04/24 10:09:01;;;;;;;;;;;;;;;21.19;40.95;100780.88;7264742;19;153581;-81
2023/04/24 10:11:29;;;;;;;;;;;;;;;21.18;40.57;100779.19;7262536;19;155486;-82
2023/04/24 10:13:57;;;;;;;;;;;;;;;21.15;40.62;100779.00;7261687;19;154249;-82
2023/04/24 10:16:26;;;;;;;;;;;;;;;21.12;40.67;100774.81;7265873;19;153583;-81
2023/04/24 10:18:55;;;;;;;;;;;;;;;21.11;40.98;100772.34;7268940;19;156001;-82
2023/04/24 10:21:22;;;;;;;;;;;;;;;21.10;40.92;100770.66;7277779;19;153714;-82
2023/04/24 10:23:50;;;;;;;;;;;;;;;21.07;41.15;100777.75;7268710;19;154919;-82
2023/04/24 10:26:19;;;;;;;;;;;;;;;21.05;40.83;100779.22;7268893;19;154565;-82
2023/04/24 10:28:47;;;;;;;;;;;;;;;21.03;41.21;100787.13;7274440;19;153358;-82
2023/04/24 10:31:14;;;;;;;;;;;;;;;21.00;41.24;100794.19;7269750;19;154599;-82
2023/04/24 10:33:42;;;;;;;;;;;;;;;21.00;40.98;100797.00;7271863;19;152870;-81
2023/04/24 10:36:10;;;;;;;;;;;;;;;20.97;41.17;100796.81;7276111;19;154181;-82
2023/04/24 10:38:40;;;;;;;;;;;;;;;20.95;40.93;100787.84;7269199;19;154575;-82
2023/04/24 10:41:10;;;;;;;;;;;;;;;20.95;41.13;100793.47;7271075;19;153080;-82
2023/04/24 10:43:39;;;;;;;;;;;;;;;20.93;41.20;100799.44;7275927;19;153041;-82
2023/04/24 10:46:07;;;;;;;;;;;;;;;20.91;41.06;100793.28;7264439;19;154404;-81
2023/04/24 10:48:34;;;;;;;;;;;;;;;20.89;41.06;100795.59;7267071;19;153266;-82
2023/04/24 10:51:01;;;;;;;;;;;;;;;20.89;41.17;100786.34;7267182;19;153627;-81
2023/04/24 10:53:29;;;;;;;;;;;;;;;20.89;41.49;100789.97;7263151;19;153717;-81
2023/04/24 10:55:57;;;;;;;;;;;;;;;20.87;41.01;100792.25;7264802;19;154241;-82
2023/04/24 10:58:35;;;;;;;;;;;;;;;20.85;40.99;100791.72;7262633;19;153057;-81
2023/04/24 11:01:02;;;;;;;;;;;;;;;20.86;41.29;100794.22;7266259;19;153161;-82
2023/04/24 11:03:30;;;;;;;;;;;;;;;20.85;41.07;100794.53;7266404;19;154110;-82
2023/04/24 11:05:59;;;;;;;;;;;;;;;20.84;40.96;100798.50;7271631;19;153351;-82
2023/04/24 11:08:27;;;;;;;;;;;;;;;20.82;41.38;100801.63;7262917;19;154208;-81
2023/04/24 11:10:57;;;;;;;;;;;;;;;20.81;40.98;100799.13;7265816;19;156234;-81
2023/04/24 11:13:25;;;;;;;;;;;;;;;20.82;41.19;100809.22;7266262;19;153551;-82
2023/04/24 11:16:01;;;;;;;;;;;;;;;20.84;41.30;100802.16;7261848;19;154406;-82
2023/04/24 11:18:36;;;;;;;;;;;;;;;20.86;40.95;100804.63;7263967;19;154766;-81
2023/04/24 11:21:10;;;;;;;;;;;;;;;20.95;41.21;100804.72;7265710;19;153466;-81
2023/04/24 11:23:37;;;;;;;;;;;;;;;20.98;41.35;100804.94;7267506;19;153907;-82
2023/04/24 11:26:14;;;;;;;;;;;;;;;21.03;41.22;100812.41;7271240;19;153747;-82
2023/04/24 11:28:45;;;;;;;;;;;;;;;21.02;40.96;100817.19;7267706;19;154400;-82
2023/04/24 11:31:22;;;;;;;;;;;;;;;21.04;40.98;100819.69;7264486;19;153286;-82
2023/04/24 11:33:49;;;;;;;;;;;;;;;21.07;41.13;100821.88;7265369;19;154002;-82
2023/04/24 11:36:16;;;;;;;;;;;;;;;21.06;41.09;100823.00;7264177;19;154935;-82
2023/04/24 11:38:43;;;;;;;;;;;;;;;21.00;41.20;100815.84;7256740;19;154139;-82
2023/04/24 11:41:11;;;;;;;;;;;;;;;21.01;41.00;100814.69;7260954;19;154005;-81
2023/04/24 11:43:39;;;;;;;;;;;;;;;21.02;40.93;100814.41;7266335;19;153018;-82
2023/04/24 11:46:06;;;;;;;;;;;;;;;21.00;40.79;100816.66;7260502;19;153594;-82
2023/04/24 11:48:36;;;;;;;;;;;;;;;20.99;40.57;100817.81;7270420;19;153388;-82
2023/04/24 11:51:03;;;;;;;;;;;;;;;21.00;40.85;100816.66;7262005;19;155651;-82
2023/04/24 11:53:30;;;;;;;;;;;;;;;21.06;40.66;100820.22;7265528;19;151989;-82
2023/04/24 11:56:02;;;;;;;;;;;;;;;21.09;40.89;100825.19;7265468;19;153488;-82
2023/04/24 11:58:34;;;;;;;;;;;;;;;21.15;40.41;100821.16;7260805;19;154558;-82
2023/04/24 12:01:02;;;;;;;;;;;;;;;21.20;40.43;100815.41;7259618;19;153210;-82
2023/04/24 12:03:29;;;;;;;;;;;;;;;21.26;40.64;100820.59;7264472;19;153209;-82
2023/04/24 12:06:07;;;;;;;;;;;;;;;21.34;40.59;100815.38;7261997;19;155758;-82
2023/04/24 12:08:34;;;;;;;;;;;;;;;21.41;40.16;100815.75;7265171;19;153249;-82
2023/04/24 12:11:07;;;;;;;;;;;;;;;21.46;40.16;100812.84;7272911;19;153715;-82
2023/04/24 12:13:35;;;;;;;;;;;;;;;21.49;40.22;100810.22;7264728;19;153113;-82
2023/04/24 12:16:04;;;;;;;;;;;;;;;21.54;40.37;100806.44;7255925;19;153247;-82
2023/04/24 12:18:34;;;;;;;;;;;;;;;21.57;40.69;100803.00;7259702;19;153228;-81
2023/04/24 12:21:11;;;;;;;;;;;;;;;21.61;40.22;100807.69;7263294;19;154167;-81
2023/04/24 12:23:38;;;;;;;;;;;;;;;21.64;40.27;100814.63;7264626;19;154168;-82
2023/04/24 12:26:05;;;;;;;;;;;;;;;21.68;39.97;100812.84;7264000;19;154500;-81
2023/04/24 12:28:34;;;;;;;;;;;;;;;21.76;40.26;100811.25;7267660;19;153395;-81
2023/04/24 12:31:02;;;;;;;;;;;;;;;21.78;39.98;100798.53;7265391;19;154810;-82
2023/04/24 12:33:32;;;;;;;;;;;;;;;21.85;39.96;100798.09;7270722;19;154435;-81
2023/04/24 12:35:59;;;;;;;;;;;;;;;21.89;39.91;100788.69;7243734;19;153605;-82